Etusivu
METAR-TAF:

METAR-TAF

Lentoasemat :

Sandakan, Malesia

Leveyspiiri: 05-54N, Pituuspiiri: 118-04E, korkeus merenpinnasta: 12 m

Tämänhetkinen sää

Tämä raportti tehtiin 1 tunti ja 1 minuuttia sitten, kello 16.00 UTC
Tuuli 3 kn idästä/koillisesta, vaihdellen pohjoisen/koillisen ja kaakon välillä
Lämpötila 28°C
Kosteus 84%
Ilmanpaine 1009 hPa
Näkyvyys 10 km tai enemmän
Muutamia pilviä 1600 ft:n korkeudessa
Hajonneita pilviä 30000 ft:n korkeudessa

METAR: WBKS 231600Z 07003KT 030V130 9999 FEW016 BKN300 28/25 Q1009

Aika: 01:01 (17:01 UTC)

Sääennuste

Tämä raportti tehtiin 6 tuntia ja 1 minuuttia sitten, kello 11.00 UTC
Ennuste voimassa 23. päivästä klo 12 UTC - 24. päivään klo 12 UTC
Tuuli 5 kn idästä/koillisesta
Näkyvyys 10 km tai enemmän
Muutamia pilviä 1500 ft:n korkeudessa

TAF: WBKS 231100Z 2312/2412 07005KT 9999 FEW015

Säähavainnot ja -ennusteet yli 4000 lentoasemalta (METAR- ja TAF-raportit).

Käytössä olevat sääasemat on merkitty karttaan keltaisilla ja punaisilla pisteillä.

Aseta hiiri pisteen päälle nähdäksesi sääaseman nimen.

Klikkaa sitten nähdäksesi säähavainnot ja -ennusteet.

Kartan vaihtaminen: klikkaa mustalla rastilla varustettuja vihreitä pisteitä, niin voit zoomata sisään; viivalla varustettua vihreää pistettä, niin voit zoomata ulos tai vihreitä nuolia, niin pääset viereisille kartoille.


METAR-TAF: